Time;durP1;ratioP1;P1;durP2;ratioP2;P2;SDS_P1;SDS_P2;PMS_P1;PMS_P2;Temp;Humidity;BMP_temperature;BMP_pressure;BME280_temperature;BME280_humidity;BME280_pressure;Samples;Min_cycle;Max_cycle;Signal;HPM_P1;HPM_P2
2023/08/31 00:02:03;;;;;;;3.22;2.40;;;13.90;99.90;;;;;;5020356;28;20425;-59
2023/08/31 00:04:29;;;;;;;3.90;2.72;;;13.90;99.90;;;;;;5015512;28;20029;-59
2023/08/31 00:06:56;;;;;;;3.10;2.50;;;13.90;99.90;;;;;;5018926;28;20037;-59
2023/08/31 00:09:24;;;;;;;5.05;2.40;;;13.90;99.90;;;;;;5018859;28;20030;-60
2023/08/31 00:11:50;;;;;;;3.53;2.60;;;13.90;99.90;;;;;;5019210;28;20279;-59
2023/08/31 00:14:17;;;;;;;3.38;2.90;;;13.90;99.90;;;;;;5015681;28;20041;-59
2023/08/31 00:16:42;;;;;;;2.80;2.50;;;13.80;99.90;;;;;;5018964;28;20128;-59
2023/08/31 00:19:08;;;;;;;2.28;2.08;;;13.80;99.90;;;;;;5019076;28;20404;-59
2023/08/31 00:21:33;;;;;;;4.30;2.40;;;13.80;99.90;;;;;;5024241;28;20124;-59
2023/08/31 00:23:59;;;;;;;2.53;2.33;;;13.70;99.90;;;;;;5019602;28;20021;-60
2023/08/31 00:26:25;;;;;;;2.45;2.25;;;13.70;99.90;;;;;;5022695;28;20108;-60
2023/08/31 00:28:52;;;;;;;3.38;2.70;;;13.70;99.90;;;;;;5018747;28;20038;-59
2023/08/31 00:31:17;;;;;;;4.00;2.90;;;13.70;99.90;;;;;;5019206;28;20049;-59
2023/08/31 00:33:43;;;;;;;2.92;2.63;;;13.70;99.90;;;;;;5016650;28;20445;-59
2023/08/31 00:36:09;;;;;;;2.83;2.60;;;13.70;99.90;;;;;;5021532;28;20087;-59
2023/08/31 00:38:34;;;;;;;2.72;2.10;;;13.70;99.90;;;;;;5023693;28;20025;-59
2023/08/31 00:41:00;;;;;;;3.63;2.47;;;13.70;99.90;;;;;;5022687;28;20025;-59
2023/08/31 00:43:26;;;;;;;2.67;2.17;;;13.70;99.90;;;;;;5022932;28;20030;-59
2023/08/31 00:45:57;;;;;;;3.30;2.78;;;13.70;99.90;;;;;;5018962;28;20513;-59
2023/08/31 00:48:23;;;;;;;4.78;2.75;;;13.70;99.90;;;;;;5019658;28;20095;-59
2023/08/31 00:50:50;;;;;;;2.83;2.25;;;13.70;99.90;;;;;;5025348;28;20447;-59
2023/08/31 00:53:16;;;;;;;4.88;2.15;;;13.70;99.90;;;;;;5015307;28;20033;-59
2023/08/31 00:55:44;;;;;;;2.60;2.17;;;13.70;99.90;;;;;;5020002;28;20098;-59
2023/08/31 00:58:10;;;;;;;2.88;2.30;;;13.70;99.90;;;;;;5012720;28;20677;-60
2023/08/31 01:01:05;;;;;;;2.78;2.40;;;13.70;99.90;;;;;;5014841;28;20036;-60
2023/08/31 01:04:07;;;;;;;4.03;2.60;;;13.70;99.90;;;;;;5014608;28;20028;-59
2023/08/31 01:06:51;;;;;;;3.05;2.75;;;13.70;99.90;;;;;;5014720;28;20035;-59
2023/08/31 01:09:36;;;;;;;2.15;1.95;;;13.70;99.90;;;;;;5016236;28;20021;-60
2023/08/31 01:12:09;;;;;;;4.88;2.65;;;13.70;99.90;;;;;;5016584;28;20037;-60
2023/08/31 01:14:47;;;;;;;2.63;2.42;;;13.70;99.90;;;;;;5010983;28;20029;-59
2023/08/31 01:17:15;;;;;;;4.28;2.35;;;13.70;99.90;;;;;;5010883;28;20555;-59
2023/08/31 01:19:52;;;;;;;3.53;3.03;;;13.70;99.90;;;;;;5013833;28;20056;-60
2023/08/31 01:22:40;;;;;;;4.38;2.72;;;13.70;99.90;;;;;;5018456;28;20026;-60
2023/08/31 01:25:09;;;;;;;4.50;2.80;;;13.70;99.90;;;;;;5014250;28;20037;-59
2023/08/31 01:27:35;;;;;;;3.60;2.25;;;13.70;99.90;;;;;;5015742;28;20045;-59
2023/08/31 01:30:02;;;;;;;4.70;2.78;;;13.70;99.90;;;;;;5018191;28;20119;-59
2023/08/31 01:32:28;;;;;;;3.75;2.55;;;13.70;99.90;;;;;;5020564;28;20037;-59
2023/08/31 01:34:57;;;;;;;2.63;2.42;;;13.70;99.90;;;;;;5024314;28;20022;-60
2023/08/31 01:37:54;;;;;;;3.10;2.40;;;13.70;99.90;;;;;;5017517;28;20549;-60
2023/08/31 01:40:27;;;;;;;2.83;2.60;;;13.70;99.90;;;;;;5012430;28;20163;-60
2023/08/31 01:42:54;;;;;;;3.47;2.85;;;13.70;99.90;;;;;;5018380;28;20488;-59
2023/08/31 01:45:22;;;;;;;3.30;2.90;;;13.70;99.90;;;;;;5017285;28;20035;-60
2023/08/31 01:47:48;;;;;;;4.38;3.03;;;13.70;99.90;;;;;;5013155;28;20460;-59
2023/08/31 01:50:14;;;;;;;2.75;2.25;;;13.70;99.90;;;;;;5015407;28;20032;-60
2023/08/31 01:52:39;;;;;;;3.15;2.60;;;13.70;99.90;;;;;;5017852;28;20025;-59
2023/08/31 01:55:06;;;;;;;3.60;2.45;;;13.70;99.90;;;;;;5021003;28;20029;-59
2023/08/31 01:57:32;;;;;;;4.07;2.78;;;13.60;99.90;;;;;;5020749;28;20083;-59
2023/08/31 01:59:58;;;;;;;3.85;3.20;;;13.60;99.90;;;;;;5022617;28;20700;-59
2023/08/31 02:02:23;;;;;;;3.47;2.90;;;13.60;99.90;;;;;;5019027;28;20044;-59
2023/08/31 02:04:50;;;;;;;3.22;2.92;;;13.60;99.90;;;;;;5017999;28;20029;-59
2023/08/31 02:07:16;;;;;;;4.57;2.80;;;13.50;99.90;;;;;;5019788;28;20069;-59
2023/08/31 02:09:42;;;;;;;3.38;3.08;;;13.50;99.90;;;;;;5020725;28;20053;-59
2023/08/31 02:12:09;;;;;;;3.50;2.90;;;13.50;99.90;;;;;;5023686;28;20036;-58
2023/08/31 02:14:35;;;;;;;3.72;2.80;;;13.50;99.90;;;;;;5016896;28;20029;-59
2023/08/31 02:17:00;;;;;;;4.85;2.90;;;13.50;99.90;;;;;;5020590;28;20528;-59
2023/08/31 02:19:26;;;;;;;3.47;3.00;;;13.50;99.90;;;;;;5022342;28;20511;-58
2023/08/31 02:21:51;;;;;;;5.43;3.10;;;13.50;99.90;;;;;;5020342;28;20022;-59
2023/08/31 02:24:17;;;;;;;3.70;3.30;;;13.50;99.90;;;;;;5016521;28;20451;-59
2023/08/31 02:26:42;;;;;;;4.35;3.47;;;13.60;99.90;;;;;;5024589;28;20021;-59
2023/08/31 02:29:08;;;;;;;3.47;3.08;;;13.60;99.90;;;;;;5020247;28;20048;-58
2023/08/31 02:31:33;;;;;;;3.95;3.40;;;13.70;99.90;;;;;;5028911;28;20190;-58
2023/08/31 02:33:59;;;;;;;3.80;3.45;;;13.70;99.90;;;;;;5022215;28;20111;-59
2023/08/31 02:36:24;;;;;;;3.03;2.72;;;13.80;99.90;;;;;;5020306;28;20033;-59
2023/08/31 02:38:50;;;;;;;2.90;2.70;;;13.90;99.90;;;;;;5020078;28;20029;-59
2023/08/31 02:41:16;;;;;;;3.67;2.97;;;13.90;99.90;;;;;;5018966;28;20033;-59
2023/08/31 02:43:42;;;;;;;3.00;2.70;;;13.90;99.90;;;;;;5017280;28;20200;-59
2023/08/31 02:46:08;;;;;;;3.17;2.85;;;14.00;99.90;;;;;;5023592;28;20201;-59
2023/08/31 02:48:33;;;;;;;2.67;2.47;;;14.00;99.90;;;;;;5017801;28;20048;-59
2023/08/31 02:51:02;;;;;;;3.42;3.00;;;14.00;99.90;;;;;;5017088;28;20056;-59
2023/08/31 02:53:32;;;;;;;3.40;3.03;;;14.00;99.90;;;;;;5016531;28;20504;-59
2023/08/31 02:55:58;;;;;;;3.42;3.00;;;14.10;99.90;;;;;;5021386;28;20439;-59
2023/08/31 02:58:24;;;;;;;2.83;2.58;;;14.10;99.90;;;;;;5020733;28;20508;-58
2023/08/31 03:00:50;;;;;;;4.45;2.78;;;14.10;99.90;;;;;;5017545;28;20045;-59
2023/08/31 03:03:16;;;;;;;4.05;2.55;;;14.20;99.90;;;;;;5025659;28;20114;-59
2023/08/31 03:05:42;;;;;;;2.85;2.55;;;14.10;99.90;;;;;;5019904;28;20049;-61
2023/08/31 03:08:08;;;;;;;2.35;2.15;;;14.20;99.90;;;;;;5020037;28;20489;-61
2023/08/31 03:10:33;;;;;;;3.17;2.00;;;14.20;99.90;;;;;;5015682;28;20105;-61
2023/08/31 03:12:59;;;;;;;3.20;2.00;;;14.20;99.90;;;;;;5021334;28;20119;-58
2023/08/31 03:15:24;;;;;;;2.28;1.77;;;14.20;99.90;;;;;;5016556;28;20044;-59
2023/08/31 03:17:50;;;;;;;2.60;2.03;;;14.20;99.90;;;;;;5018303;28;20024;-58
2023/08/31 03:20:15;;;;;;;3.70;1.83;;;14.20;99.90;;;;;;5023227;28;20535;-59
2023/08/31 03:22:41;;;;;;;1.38;1.27;;;14.20;99.90;;;;;;5021807;28;20030;-59
2023/08/31 03:25:07;;;;;;;1.65;1.33;;;14.20;99.90;;;;;;5020273;28;20040;-59
2023/08/31 03:27:33;;;;;;;2.58;1.55;;;14.20;99.90;;;;;;5023477;28;20037;-59
2023/08/31 03:29:58;;;;;;;1.35;1.23;;;14.20;99.90;;;;;;5019712;28;20477;-60
2023/08/31 03:32:24;;;;;;;1.55;1.30;;;14.10;99.90;;;;;;5019105;28;20504;-59
2023/08/31 03:34:50;;;;;;;1.88;1.50;;;14.20;99.90;;;;;;5019323;28;20022;-59
2023/08/31 03:37:15;;;;;;;1.85;1.52;;;14.10;99.90;;;;;;5021131;28;20033;-59
2023/08/31 03:39:42;;;;;;;1.55;1.38;;;14.10;99.90;;;;;;5019265;28;20570;-59
2023/08/31 03:42:11;;;;;;;2.22;1.65;;;14.10;99.90;;;;;;5023911;28;20053;-60
2023/08/31 03:44:37;;;;;;;1.90;1.40;;;14.10;99.90;;;;;;5017007;28;20118;-59
2023/08/31 03:47:03;;;;;;;1.30;1.10;;;14.10;99.90;;;;;;5017388;28;20057;-59
2023/08/31 03:49:30;;;;;;;2.10;1.42;;;14.00;99.90;;;;;;5020525;28;20080;-59
2023/08/31 03:51:55;;;;;;;1.50;1.40;;;14.00;99.90;;;;;;5018683;28;20105;-59
2023/08/31 03:54:20;;;;;;;2.92;1.83;;;14.00;99.90;;;;;;5021241;28;20112;-59
2023/08/31 03:56:46;;;;;;;1.75;1.50;;;14.00;99.90;;;;;;5019553;28;20029;-59
2023/08/31 03:59:12;;;;;;;2.80;1.70;;;14.00;99.90;;;;;;5019377;28;20527;-59
2023/08/31 04:01:37;;;;;;;2.08;1.63;;;13.90;99.90;;;;;;5019117;28;20036;-59
2023/08/31 04:04:04;;;;;;;1.67;1.50;;;14.00;99.90;;;;;;5027727;28;20301;-59
2023/08/31 04:06:29;;;;;;;1.85;1.50;;;13.90;99.90;;;;;;5019327;28;20064;-58
2023/08/31 04:08:55;;;;;;;2.13;1.55;;;13.90;99.90;;;;;;5020869;28;20041;-60
2023/08/31 04:11:21;;;;;;;1.83;1.50;;;13.90;99.90;;;;;;5019137;28;20029;-59
2023/08/31 04:13:46;;;;;;;3.05;1.77;;;13.90;99.90;;;;;;5016342;28;20517;-60
2023/08/31 04:16:12;;;;;;;3.10;2.00;;;13.90;99.90;;;;;;5016092;28;20034;-60
2023/08/31 04:18:37;;;;;;;1.70;1.55;;;13.80;99.90;;;;;;5020456;28;20029;-59
2023/08/31 04:21:03;;;;;;;1.65;1.52;;;13.90;99.90;;;;;;5021298;28;20083;-59
2023/08/31 04:23:29;;;;;;;1.70;1.50;;;13.80;99.90;;;;;;5028017;28;20072;-62
2023/08/31 04:25:55;;;;;;;1.35;1.25;;;13.80;99.90;;;;;;5018888;28;20040;-60
2023/08/31 04:28:21;;;;;;;1.75;1.48;;;13.80;99.90;;;;;;5021269;28;20022;-59
2023/08/31 04:30:47;;;;;;;2.25;1.85;;;13.80;99.90;;;;;;5021497;28;20042;-59
2023/08/31 04:33:12;;;;;;;2.05;1.75;;;13.80;99.90;;;;;;5021439;28;20413;-59
2023/08/31 04:35:38;;;;;;;2.03;1.67;;;13.80;99.90;;;;;;5020847;28;20057;-59
2023/08/31 04:38:03;;;;;;;2.42;1.73;;;13.80;99.90;;;;;;5021537;28;20504;-59
2023/08/31 04:40:29;;;;;;;1.65;1.45;;;13.80;99.90;;;;;;5025743;28;20108;-59
2023/08/31 04:42:55;;;;;;;2.15;1.95;;;13.80;99.90;;;;;;5025084;28;20261;-60
2023/08/31 04:45:20;;;;;;;2.38;1.80;;;13.90;99.90;;;;;;5025450;28;20563;-59
2023/08/31 04:47:46;;;;;;;2.55;2.05;;;13.80;99.90;;;;;;5021244;28;20060;-58
2023/08/31 04:50:11;;;;;;;3.35;2.40;;;13.90;99.90;;;;;;5021272;28;20030;-59
2023/08/31 04:52:37;;;;;;;2.88;1.95;;;13.90;99.90;;;;;;5021772;28;20160;-60
2023/08/31 04:55:03;;;;;;;3.40;2.17;;;13.90;99.90;;;;;;5020168;28;20075;-60
2023/08/31 04:57:29;;;;;;;2.95;2.35;;;13.90;99.90;;;;;;5025095;28;20481;-59
2023/08/31 04:59:54;;;;;;;2.63;2.28;;;13.90;99.90;;;;;;5025210;28;20045;-60
2023/08/31 05:02:20;;;;;;;2.22;1.90;;;13.90;99.90;;;;;;5022381;28;20448;-59
2023/08/31 05:04:45;;;;;;;2.17;1.98;;;14.00;99.90;;;;;;5022852;28;20678;-59
2023/08/31 05:07:11;;;;;;;2.80;2.30;;;14.00;99.90;;;;;;5020164;28;20120;-59
2023/08/31 05:09:36;;;;;;;3.20;2.40;;;14.00;99.90;;;;;;5022646;28;20084;-59
2023/08/31 05:12:05;;;;;;;3.33;2.47;;;14.10;99.90;;;;;;5020918;28;20116;-60
2023/08/31 05:14:31;;;;;;;2.97;2.30;;;14.00;99.90;;;;;;5017354;28;20029;-59
2023/08/31 05:16:56;;;;;;;4.10;2.72;;;14.10;99.90;;;;;;5023052;28;20071;-60
2023/08/31 05:19:22;;;;;;;3.05;2.33;;;14.10;99.90;;;;;;5018224;28;20036;-60
2023/08/31 05:21:47;;;;;;;3.03;2.40;;;14.10;99.90;;;;;;5027550;28;20060;-59
2023/08/31 05:24:13;;;;;;;4.85;2.72;;;14.10;99.90;;;;;;5018772;28;20036;-59
2023/08/31 05:26:42;;;;;;;4.32;3.15;;;14.10;99.90;;;;;;5020036;28;20034;-60
2023/08/31 05:29:07;;;;;;;3.08;2.65;;;14.20;99.90;;;;;;5026252;28;20104;-60
2023/08/31 05:31:33;;;;;;;3.47;2.65;;;14.20;99.90;;;;;;5015656;28;20048;-60
2023/08/31 05:33:58;;;;;;;3.15;2.67;;;14.20;99.90;;;;;;5021562;28;20034;-60
2023/08/31 05:36:24;;;;;;;4.88;2.63;;;14.30;99.90;;;;;;5028063;28;20452;-59
2023/08/31 05:38:51;;;;;;;2.75;2.17;;;14.40;99.90;;;;;;5020370;28;20026;-59
2023/08/31 05:41:16;;;;;;;2.90;2.33;;;14.50;99.90;;;;;;5020568;28;20060;-59
2023/08/31 05:43:42;;;;;;;3.72;2.75;;;14.60;99.90;;;;;;5025911;28;20013;-59
2023/08/31 05:46:08;;;;;;;3.65;2.70;;;14.70;99.90;;;;;;5019600;28;20029;-59
2023/08/31 05:48:34;;;;;;;3.65;3.08;;;14.80;99.90;;;;;;5019887;28;20116;-58
2023/08/31 05:51:00;;;;;;;5.90;3.28;;;14.80;99.90;;;;;;5020234;28;20017;-59
2023/08/31 05:53:26;;;;;;;5.53;3.10;;;14.90;99.90;;;;;;5021715;28;20040;-59
2023/08/31 05:55:51;;;;;;;4.28;3.05;;;15.00;99.90;;;;;;5022550;28;20405;-59
2023/08/31 05:58:17;;;;;;;3.50;2.33;;;15.10;99.90;;;;;;5018056;28;20030;-59
2023/08/31 06:00:42;;;;;;;3.90;3.08;;;15.30;99.90;;;;;;5026110;28;20492;-59
2023/08/31 06:03:08;;;;;;;4.00;3.20;;;15.50;99.90;;;;;;5015125;28;20044;-60
2023/08/31 06:05:35;;;;;;;3.60;3.13;;;15.70;99.90;;;;;;5020917;28;20319;-59
2023/08/31 06:08:00;;;;;;;5.35;3.38;;;15.70;99.90;;;;;;5021022;28;20033;-60
2023/08/31 06:10:26;;;;;;;5.15;4.10;;;15.90;99.90;;;;;;5017156;28;20510;-59
2023/08/31 06:12:51;;;;;;;4.40;3.95;;;15.80;99.90;;;;;;5019284;28;20060;-59
2023/08/31 06:15:17;;;;;;;5.57;3.60;;;15.80;99.90;;;;;;5020420;28;20033;-59
2023/08/31 06:17:43;;;;;;;4.28;3.53;;;15.80;99.90;;;;;;5019293;28;20104;-60
2023/08/31 06:20:09;;;;;;;4.15;3.42;;;15.80;99.90;;;;;;5019426;28;20497;-60
2023/08/31 06:22:37;;;;;;;4.60;3.88;;;15.80;99.90;;;;;;5020034;28;20033;-60
2023/08/31 06:25:05;;;;;;;4.90;3.20;;;15.70;99.90;;;;;;5019656;28;20393;-59
2023/08/31 06:27:30;;;;;;;4.97;3.47;;;15.70;99.90;;;;;;5016789;28;20040;-60
2023/08/31 06:29:56;;;;;;;4.18;3.78;;;15.60;99.90;;;;;;5022438;28;20025;-59
2023/08/31 06:32:23;;;;;;;4.88;3.78;;;15.70;99.90;;;;;;5028790;28;20137;-59
2023/08/31 06:34:48;;;;;;;4.63;3.45;;;15.70;99.90;;;;;;5018772;28;20440;-58
2023/08/31 06:37:14;;;;;;;4.03;3.53;;;15.70;99.90;;;;;;5019274;28;20032;-60
2023/08/31 06:39:40;;;;;;;4.28;3.42;;;15.70;99.90;;;;;;5019170;28;20028;-60
2023/08/31 06:42:07;;;;;;;3.85;3.13;;;15.70;99.90;;;;;;5015691;28;20041;-60
2023/08/31 06:44:32;;;;;;;5.65;3.80;;;15.80;99.90;;;;;;5019831;28;20401;-59
2023/08/31 06:46:58;;;;;;;4.10;3.40;;;15.90;99.90;;;;;;5019114;28;20769;-59
2023/08/31 06:49:24;;;;;;;3.95;3.40;;;15.90;99.90;;;;;;5023889;28;20433;-60
2023/08/31 06:51:49;;;;;;;4.07;3.60;;;16.00;99.90;;;;;;5016775;28;20413;-59
2023/08/31 06:54:15;;;;;;;4.28;3.65;;;16.10;99.90;;;;;;5017754;28;20121;-60
2023/08/31 06:56:41;;;;;;;5.53;3.85;;;16.10;99.90;;;;;;5017445;28;20596;-59
2023/08/31 06:59:06;;;;;;;5.30;4.30;;;16.10;99.90;;;;;;5019011;28;20026;-59
2023/08/31 07:01:32;;;;;;;4.25;3.85;;;16.10;99.90;;;;;;5018912;28;20470;-60
2023/08/31 07:03:58;;;;;;;8.20;5.20;;;16.00;99.90;;;;;;5018749;28;20025;-59
2023/08/31 07:06:24;;;;;;;4.60;3.70;;;16.00;99.90;;;;;;5018837;28;20104;-60
2023/08/31 07:08:50;;;;;;;5.35;3.42;;;15.90;99.90;;;;;;5024547;28;20044;-60
2023/08/31 07:11:17;;;;;;;4.28;3.03;;;16.00;99.90;;;;;;5018801;28;20025;-60
2023/08/31 07:13:42;;;;;;;3.60;3.28;;;16.00;99.90;;;;;;5013373;28;20508;-60
2023/08/31 07:16:08;;;;;;;5.85;3.95;;;16.00;99.90;;;;;;5018487;28;20053;-59
2023/08/31 07:18:33;;;;;;;7.68;4.07;;;16.00;99.90;;;;;;5018281;28;20033;-60
2023/08/31 07:20:59;;;;;;;4.18;3.53;;;15.90;99.90;;;;;;5018497;28;20060;-59
2023/08/31 07:23:24;;;;;;;7.97;3.28;;;15.80;99.90;;;;;;5020554;28;20033;-60
2023/08/31 07:25:50;;;;;;;5.22;2.80;;;15.80;99.90;;;;;;5023349;28;20017;-60
2023/08/31 07:28:15;;;;;;;3.80;3.20;;;15.80;99.90;;;;;;5026434;28;20044;-60
2023/08/31 07:30:41;;;;;;;7.43;3.63;;;15.80;99.90;;;;;;5017998;28;20429;-60
2023/08/31 07:33:07;;;;;;;2.72;2.47;;;16.00;99.90;;;;;;5017484;28;20049;-66
2023/08/31 07:35:33;;;;;;;4.47;2.42;;;17.00;99.90;;;;;;5019915;28;20025;-66
2023/08/31 07:37:58;;;;;;;2.60;2.33;;;18.50;99.90;;;;;;5015957;28;20106;-66
2023/08/31 07:40:25;;;;;;;3.20;2.10;;;19.20;95.50;;;;;;5018295;28;20027;-67
2023/08/31 07:42:51;;;;;;;2.78;2.28;;;19.50;94.90;;;;;;5018045;28;20017;-66
2023/08/31 07:45:17;;;;;;;3.22;2.80;;;19.60;94.60;;;;;;5022489;28;20525;-66
2023/08/31 07:47:42;;;;;;;3.67;2.20;;;19.50;92.50;;;;;;5018452;28;20113;-65
2023/08/31 07:50:08;;;;;;;6.53;2.63;;;19.20;93.10;;;;;;5019809;28;20196;-66
2023/08/31 07:52:34;;;;;;;2.90;2.60;;;18.90;91.20;;;;;;5016058;28;20489;-66
2023/08/31 07:55:00;;;;;;;2.58;2.13;;;18.70;92.30;;;;;;5018368;28;20033;-66
2023/08/31 07:57:26;;;;;;;4.53;2.47;;;18.50;93.20;;;;;;5022252;28;20421;-65
2023/08/31 07:59:51;;;;;;;5.25;2.78;;;18.40;94.00;;;;;;5022507;28;20033;-66
2023/08/31 08:02:17;;;;;;;3.40;2.60;;;18.30;92.60;;;;;;5022071;28;20061;-65
2023/08/31 08:04:42;;;;;;;2.53;2.20;;;18.10;93.20;;;;;;5031067;28;20056;-66
2023/08/31 08:07:08;;;;;;;2.67;2.30;;;18.00;93.60;;;;;;5020801;28;20037;-65
2023/08/31 08:09:34;;;;;;;4.03;2.20;;;17.80;93.80;;;;;;5017982;28;20025;-66
2023/08/31 08:11:59;;;;;;;3.53;2.55;;;17.80;94.20;;;;;;5020725;28;20436;-65
2023/08/31 08:14:25;;;;;;;2.95;2.28;;;17.80;94.30;;;;;;5016753;28;20034;-65
2023/08/31 08:16:50;;;;;;;6.28;2.90;;;17.70;93.50;;;;;;5020580;28;20018;-66
2023/08/31 08:19:24;;;;;;;3.83;2.38;;;17.60;91.50;;;;;;5025680;28;20053;-65
2023/08/31 08:21:50;;;;;;;6.07;2.28;;;17.50;92.80;;;;;;5023389;28;20114;-66
2023/08/31 08:24:16;;;;;;;2.50;2.22;;;17.50;93.30;;;;;;5021745;28;20072;-66
2023/08/31 08:26:42;;;;;;;2.78;2.30;;;17.50;93.30;;;;;;5026848;28;20418;-66
2023/08/31 08:29:07;;;;;;;5.45;2.20;;;17.60;92.10;;;;;;5026890;28;20029;-65
2023/08/31 08:31:33;;;;;;;4.70;2.28;;;17.70;91.10;;;;;;5018084;28;20045;-65
2023/08/31 08:33:58;;;;;;;5.68;2.30;;;17.70;91.80;;;;;;5023609;28;20048;-66
2023/08/31 08:36:24;;;;;;;2.22;1.67;;;18.00;92.10;;;;;;5021382;28;20033;-65
2023/08/31 08:38:49;;;;;;;5.35;2.22;;;18.40;90.20;;;;;;5020648;28;20100;-66
2023/08/31 08:41:19;;;;;;;3.75;1.90;;;18.70;90.30;;;;;;5027552;28;20017;-65
2023/08/31 08:43:47;;;;;;;2.25;1.70;;;19.20;90.00;;;;;;5019368;28;20091;-65
2023/08/31 08:46:13;;;;;;;5.43;1.90;;;19.50;88.40;;;;;;5021590;28;20401;-66
2023/08/31 08:48:40;;;;;;;3.38;1.42;;;19.70;83.00;;;;;;5021138;28;20046;-61
2023/08/31 08:51:07;;;;;;;3.42;1.58;;;19.90;83.90;;;;;;5020524;28;20108;-61
2023/08/31 08:53:33;;;;;;;3.97;1.30;;;20.00;83.20;;;;;;5021164;28;20014;-58
2023/08/31 08:55:58;;;;;;;4.50;1.70;;;20.30;83.60;;;;;;5021548;28;20021;-58
2023/08/31 08:58:24;;;;;;;1.80;1.55;;;20.50;85.20;;;;;;5029914;28;20044;-58
2023/08/31 09:00:51;;;;;;;3.67;1.40;;;20.90;84.40;;;;;;5022986;28;20095;-59
2023/08/31 09:03:17;;;;;;;3.13;1.25;;;21.10;82.80;;;;;;5020884;28;20481;-64
2023/08/31 09:05:42;;;;;;;3.22;1.35;;;21.20;80.70;;;;;;5025082;28;20475;-64
2023/08/31 09:08:13;;;;;;;4.07;1.58;;;21.20;80.30;;;;;;5023401;28;20033;-64
2023/08/31 09:10:40;;;;;;;2.25;1.17;;;21.40;73.60;;;;;;5024785;28;20029;-65
2023/08/31 09:13:17;;;;;;;2.03;0.90;;;21.60;74.50;;;;;;5019075;28;20029;-61
2023/08/31 09:15:48;;;;;;;3.50;1.25;;;21.90;73.20;;;;;;5021707;28;20029;-64
2023/08/31 09:18:34;;;;;;;3.70;1.15;;;22.10;72.30;;;;;;5021164;28;20014;-65
2023/08/31 09:21:00;;;;;;;1.63;0.90;;;22.30;73.40;;;;;;5021479;28;20568;-64
2023/08/31 09:23:26;;;;;;;1.98;0.90;;;22.30;71.10;;;;;;5019994;28;20108;-64
2023/08/31 09:25:54;;;;;;;2.67;0.85;;;22.40;70.10;;;;;;5025835;28;20029;-65
2023/08/31 09:28:26;;;;;;;2.25;0.90;;;22.20;68.50;;;;;;5021577;28;20108;-64
2023/08/31 09:30:53;;;;;;;2.67;1.25;;;22.10;67.70;;;;;;5020319;28;20459;-64
2023/08/31 09:33:23;;;;;;;1.60;1.08;;;21.90;67.70;;;;;;5021792;28;20030;-65
2023/08/31 09:35:59;;;;;;;3.65;1.23;;;21.80;66.80;;;;;;5021501;28;20532;-64
2023/08/31 09:38:25;;;;;;;1.25;0.82;;;21.50;64.40;;;;;;5015827;28;20030;-64
2023/08/31 09:40:50;;;;;;;1.52;1.08;;;21.40;66.30;;;;;;5024244;28;20507;-64
2023/08/31 09:43:21;;;;;;;2.65;0.98;;;21.30;65.50;;;;;;5018188;28;20028;-65
2023/08/31 09:45:47;;;;;;;1.92;1.13;;;21.30;65.70;;;;;;5021776;28;20060;-64
2023/08/31 09:48:15;;;;;;;2.00;1.20;;;21.20;64.90;;;;;;5025125;28;20025;-64
2023/08/31 09:50:43;;;;;;;2.58;1.20;;;21.10;65.10;;;;;;5021090;28;20398;-65
2023/08/31 09:53:10;;;;;;;1.73;0.98;;;21.10;66.00;;;;;;5017475;28;20064;-64
2023/08/31 09:55:39;;;;;;;2.05;0.90;;;21.30;66.20;;;;;;5024132;28;20428;-64
2023/08/31 09:58:07;;;;;;;3.65;1.10;;;21.40;66.60;;;;;;5021028;28;20040;-64
2023/08/31 10:00:36;;;;;;;1.77;1.00;;;21.50;66.00;;;;;;5022881;28;20127;-64
2023/08/31 10:03:04;;;;;;;3.00;1.15;;;21.60;65.70;;;;;;5019650;28;20033;-64
2023/08/31 10:05:31;;;;;;;3.65;1.00;;;21.60;63.70;;;;;;5022722;28;20025;-64
2023/08/31 10:07:58;;;;;;;1.25;0.95;;;21.60;62.90;;;;;;5024778;28;20552;-64
2023/08/31 10:10:24;;;;;;;2.40;0.80;;;21.70;58.50;;;;;;5020900;28;20524;-64
2023/08/31 10:12:51;;;;;;;2.03;0.90;;;21.80;60.40;;;;;;5024718;28;20030;-60
2023/08/31 10:15:18;;;;;;;1.98;0.85;;;21.80;59.40;;;;;;5013139;28;20068;-59
2023/08/31 10:17:44;;;;;;;2.75;1.30;;;21.80;58.90;;;;;;5024023;28;20028;-59
2023/08/31 10:20:11;;;;;;;1.70;1.13;;;21.90;57.10;;;;;;5017492;28;20052;-59
2023/08/31 10:22:38;;;;;;;2.72;1.05;;;21.90;58.50;;;;;;5022416;28;20033;-58
2023/08/31 10:25:08;;;;;;;1.85;1.10;;;21.90;58.10;;;;;;5024470;28;20115;-56
2023/08/31 10:27:41;;;;;;;1.83;0.70;;;21.90;57.70;;;;;;5018483;28;20026;-60
2023/08/31 10:30:15;;;;;;;2.13;0.95;;;21.70;56.30;;;;;;5027379;28;20021;-64
2023/08/31 10:32:40;;;;;;;5.45;1.08;;;21.50;57.20;;;;;;5022218;28;20045;-64
2023/08/31 10:35:08;;;;;;;2.50;0.90;;;21.30;57.50;;;;;;5020435;28;20728;-64
2023/08/31 10:37:34;;;;;;;1.77;1.20;;;21.10;57.70;;;;;;5019154;28;20331;-65
2023/08/31 10:40:11;;;;;;;0.90;0.77;;;21.10;58.60;;;;;;5018793;28;20029;-65
2023/08/31 10:42:47;;;;;;;1.27;0.70;;;21.10;57.30;;;;;;5020019;28;20021;-65
2023/08/31 10:45:20;;;;;;;1.50;0.70;;;21.20;57.60;;;;;;5021176;28;20029;-64
2023/08/31 10:47:46;;;;;;;1.98;0.80;;;21.40;57.50;;;;;;5016785;28;20041;-63
2023/08/31 10:50:22;;;;;;;2.55;1.08;;;21.50;58.10;;;;;;5025957;28;20033;-64
2023/08/31 10:52:49;;;;;;;2.67;0.90;;;21.70;56.90;;;;;;5018273;28;20022;-64
2023/08/31 10:55:14;;;;;;;3.80;1.20;;;21.80;57.80;;;;;;5022375;28;20026;-64
2023/08/31 10:57:41;;;;;;;2.22;1.25;;;21.90;54.80;;;;;;5022569;28;20399;-64
2023/08/31 11:00:07;;;;;;;3.65;0.95;;;21.90;55.90;;;;;;5016936;28;20465;-64
2023/08/31 11:02:44;;;;;;;1.25;0.75;;;22.00;56.10;;;;;;5020549;28;20013;-65
2023/08/31 11:05:18;;;;;;;3.15;0.75;;;22.00;55.30;;;;;;5019696;28;20028;-64
2023/08/31 11:07:52;;;;;;;1.67;1.20;;;22.10;54.90;;;;;;5021430;28;21144;-65
2023/08/31 11:10:19;;;;;;;1.20;0.88;;;21.90;49.40;;;;;;5019988;28;20029;-64
2023/08/31 11:12:47;;;;;;;2.42;0.88;;;21.70;53.00;;;;;;5020101;28;20107;-65
2023/08/31 11:15:14;;;;;;;1.52;0.98;;;21.60;53.30;;;;;;5014148;28;20037;-64
2023/08/31 11:17:41;;;;;;;2.58;1.00;;;21.50;53.50;;;;;;5016185;28;20018;-65
2023/08/31 11:20:09;;;;;;;1.35;1.00;;;21.30;53.50;;;;;;5020745;28;20036;-64
2023/08/31 11:22:39;;;;;;;1.05;0.80;;;21.00;53.20;;;;;;5019357;28;20037;-64
2023/08/31 11:25:05;;;;;;;1.50;1.08;;;20.70;53.00;;;;;;5023659;28;20024;-64
2023/08/31 11:27:30;;;;;;;1.88;1.00;;;20.10;56.70;;;;;;5019208;28;20552;-63
2023/08/31 11:29:55;;;;;;;2.00;0.70;;;19.60;60.40;;;;;;5023421;28;20033;-62
2023/08/31 11:32:27;;;;;;;2.58;0.90;;;19.10;62.10;;;;;;5020901;28;20033;-63
2023/08/31 11:34:52;;;;;;;1.00;0.70;;;18.80;64.00;;;;;;5021812;28;20022;-64
2023/08/31 11:37:20;;;;;;;3.03;0.60;;;18.40;65.70;;;;;;5018267;28;20025;-63
2023/08/31 11:39:52;;;;;;;0.50;0.50;;;18.10;67.40;;;;;;5019080;28;20113;-63
2023/08/31 11:42:20;;;;;;;1.85;0.70;;;17.90;68.60;;;;;;5019045;28;20497;-63
2023/08/31 11:44:51;;;;;;;2.13;0.70;;;17.70;69.80;;;;;;5023337;28;20087;-63
2023/08/31 11:47:17;;;;;;;2.10;0.90;;;17.70;71.10;;;;;;5018914;28;20072;-64
2023/08/31 11:49:44;;;;;;;1.83;0.68;;;17.60;72.00;;;;;;5015184;28;20045;-63
2023/08/31 11:52:11;;;;;;;1.58;0.90;;;17.80;72.90;;;;;;5015621;28;20061;-64
2023/08/31 11:54:39;;;;;;;1.10;0.82;;;18.00;76.00;;;;;;5019962;28;20071;-64
2023/08/31 11:57:07;;;;;;;1.10;0.77;;;18.40;75.40;;;;;;5020546;28;20010;-64
2023/08/31 11:59:38;;;;;;;2.17;0.60;;;18.70;75.40;;;;;;5016840;28;20029;-63
2023/08/31 12:02:08;;;;;;;2.17;0.70;;;19.00;73.80;;;;;;5020205;28;20037;-64
2023/08/31 12:04:33;;;;;;;1.52;0.70;;;19.20;73.10;;;;;;5021893;28;20028;-64
2023/08/31 12:07:06;;;;;;;2.00;0.68;;;19.40;72.60;;;;;;5019188;28;20025;-63
2023/08/31 12:09:32;;;;;;;1.35;0.60;;;19.50;72.30;;;;;;5023069;28;20112;-64
2023/08/31 12:11:58;;;;;;;0.95;0.70;;;19.50;72.50;;;;;;5021045;28;20121;-64
2023/08/31 12:14:25;;;;;;;3.40;0.95;;;19.50;72.40;;;;;;5017630;28;20033;-64
2023/08/31 12:16:52;;;;;;;0.95;0.65;;;19.50;72.20;;;;;;5018919;28;20018;-64
2023/08/31 12:19:18;;;;;;;2.08;0.85;;;19.50;71.60;;;;;;5017453;28;20887;-64
2023/08/31 12:21:46;;;;;;;1.25;0.77;;;19.50;71.50;;;;;;5026180;28;20022;-64
2023/08/31 12:24:11;;;;;;;3.22;1.00;;;19.50;71.80;;;;;;5015987;28;20021;-64
2023/08/31 12:26:37;;;;;;;2.88;0.93;;;19.40;71.10;;;;;;5018542;28;20022;-64
2023/08/31 12:29:06;;;;;;;0.90;0.70;;;19.40;71.20;;;;;;5018209;28;20090;-64
2023/08/31 12:31:32;;;;;;;0.88;0.88;;;19.40;70.60;;;;;;5015578;28;20052;-63
2023/08/31 12:33:59;;;;;;;0.82;0.82;;;19.40;69.40;;;;;;5017097;28;20500;-63
2023/08/31 12:36:25;;;;;;;2.47;0.75;;;19.30;69.50;;;;;;5020641;28;20030;-63
2023/08/31 12:38:51;;;;;;;1.25;0.95;;;19.20;68.40;;;;;;5021659;28;20074;-63
2023/08/31 12:41:17;;;;;;;0.82;0.82;;;19.10;68.10;;;;;;5019098;28;20018;-63
2023/08/31 12:43:43;;;;;;;0.70;0.60;;;19.00;68.50;;;;;;5019548;28;20022;-63
2023/08/31 12:46:09;;;;;;;1.50;0.80;;;19.00;69.40;;;;;;5024506;28;20021;-63
2023/08/31 12:48:35;;;;;;;1.00;0.80;;;18.90;70.20;;;;;;5014293;28;20038;-64